Aérodrome :
LOGIN :

S'inscrire | Disclaimer

   EN    FR    IT 

 










Légende :    VFR   VFR Marginal   IFR   IFR Intensif   IFR Très Intensif
Visi : 
Plafond : 
>= 8 km
>= 3000ft
5 à 8 km
1000 à 3000 ft
1500m à 5 km
500 à 1000 ft
800 à 1500m
200 à 500 ft
< 800m
< 200 ft
Symboles :   Orages  Brouillard  Fortes neiges  Fortes précipitations  Vent > 20 kt
SIGMETs :   Divers  Orages  Givrage  Turbulence  Onde Orograph.  Cendres Volcan.







- Altitude de l'aérodrome : 32 ft
- Code IATA : LKZ


EGUL - RAF Lakenheath

DERNIER METAR :
  • 151956Z AUTO 14004KT 9999 CLR 24/12 A2992 RMK AO2 SLP135 T02380118 $

METARs EXPIRÉS :
  • 151856Z AUTO 12005KT 9999 SCT075 26/12 A2991 RMK AO2 SLP131 T02610118 $
  • 151756Z AUTO 15010G15KT 9999 FEW085 28/11 A2989 RMK AO2 SLP125 T02840114 10307 20279 57010 $

TAF TAF EGUL
Valide du 15 à 20h jusqu'au 17 à 02h UTC


152008Z 1520/1702 15009KT 9999 FEW050 BKN080 QNH2986INS
BECMG 1618/1619 VRB06KT 8000 -SHRA BKN040 QNH2982INS
BECMG 1622/1623 VRB06KT 9999 NSW SCT020 BKN060 QNH2990INS TX30/1614Z TN13/1604Z
Pas de NOTAMs connus pour ce terrain.



MET'MAP, la Météo Aéronautique d'un coup d'oeil ! - Copyright ORBIFLY Décembre 2007 - Disclaimer

ORBIFLY MET'MAP TEAM :

Programmation & Développement : Alexandra Zaïnal
Conception & Développement : Baudouin d'Aumeries
Co-Programmation & Développement : Marc-Olivier Méhu
Soutien technique & logistique : Manuel Goepfert

Contact : metmap@orbifly.com




SOURCES & CREDITS :

   NOAA